Terminal Aerodrome Forecast
Issued by NWS

Home | Current Version | Previous Version | Text Only | Print | Product List | Glossary On
Versions: 1 2 3 4 5 6 7 8 9 10 11 12 13 14 15 16
080
FTUS43 KGRR 202321
TAFAZO
TAF
KAZO 202321Z 2100/2124 30007KT P6SM SKC
     FM210200 VRB03KT P6SM SKC
     FM210800 00000KT 2SM BR SCT150
     FM211000 00000KT 1/4SM FG VV001
     FM211200 00000KT 4SM BR SKC
     FM211400 VRB03KT P6SM FEW025=

USA.gov is the U.S. government's official web portal to all federal, state and local government web resources and services.